createdAt,value
2019-03-06T00:00:49.445Z,3.37
2019-03-06T00:05:58.081Z,3.17
2019-03-06T00:11:03.449Z,3.30
2019-03-06T00:16:08.925Z,3.83
2019-03-06T00:21:14.249Z,4.07
2019-03-06T00:26:20.967Z,4.20
2019-03-06T00:31:26.257Z,4.00
2019-03-06T00:36:33.237Z,4.00
2019-03-06T00:41:43.966Z,4.10
2019-03-06T00:46:49.181Z,4.37
2019-03-06T00:51:54.381Z,4.67
2019-03-06T00:56:59.843Z,5.05
2019-03-06T01:02:05.423Z,5.30
2019-03-06T01:07:11.529Z,5.35
2019-03-06T01:12:16.877Z,5.12
2019-03-06T01:17:22.145Z,5.40
2019-03-06T01:22:27.553Z,4.97
2019-03-06T01:27:32.861Z,5.72
2019-03-06T01:32:38.252Z,6.10
2019-03-06T01:38:08.557Z,6.43
2019-03-06T01:43:21.256Z,7.15
2019-03-06T01:48:26.584Z,7.10
2019-03-06T01:53:31.955Z,7.67
2019-03-06T01:58:37.580Z,9.50
2019-03-06T02:03:43.642Z,9.60
2019-03-06T02:08:49.359Z,9.38
2019-03-06T02:13:54.590Z,10.23
2019-03-06T02:19:03.074Z,11.10
2019-03-06T02:24:08.302Z,11.03
2019-03-06T02:29:14.796Z,12.65
2019-03-06T02:34:20.092Z,13.43
2019-03-06T02:39:26.737Z,13.80
2019-03-06T02:44:33.352Z,14.98
2019-03-06T02:49:39.180Z,15.97
2019-03-06T02:54:44.499Z,15.80
2019-03-06T03:00:22.407Z,16.70
2019-03-06T03:05:40.111Z,17.52
2019-03-06T03:10:45.307Z,18.90
2019-03-06T03:15:50.623Z,18.80
2019-03-06T03:20:56.585Z,18.27
2019-03-06T03:26:01.774Z,18.70
2019-03-06T03:31:07.149Z,20.85
2019-03-06T03:36:12.339Z,22.10
2019-03-06T03:41:17.664Z,22.75
2019-03-06T03:46:23.389Z,22.62
2019-03-06T03:51:31.373Z,24.05
2019-03-06T03:56:36.670Z,25.23
2019-03-06T04:01:42.469Z,25.50
2019-03-06T04:06:47.976Z,24.87
2019-03-06T04:11:55.288Z,26.75
2019-03-06T04:17:01.811Z,27.30
2019-03-06T04:22:08.107Z,27.50
2019-03-06T04:27:13.320Z,26.90
2019-03-06T04:32:19.941Z,26.15
2019-03-06T04:37:27.511Z,26.23
2019-03-06T04:42:32.858Z,25.33
2019-03-06T04:47:38.180Z,25.65
2019-03-06T04:52:43.726Z,25.33
2019-03-06T04:57:50.578Z,24.70
2019-03-06T05:02:57.982Z,24.18
2019-03-06T05:08:03.187Z,23.07
2019-03-06T05:13:09.801Z,21.60
2019-03-06T05:18:25.182Z,22.47
2019-03-06T05:23:30.577Z,22.33
2019-03-06T05:28:35.959Z,20.90
2019-03-06T05:33:43.215Z,19.93
2019-03-06T05:39:04.306Z,19.57
2019-03-06T05:44:11.376Z,17.40
2019-03-06T05:49:16.627Z,17.87
2019-03-06T05:54:22.177Z,15.98
2019-03-06T05:59:29.177Z,15.68
2019-03-06T06:04:34.381Z,16.70
2019-03-06T06:09:41.180Z,16.70
2019-03-06T06:14:47.051Z,15.70
2019-03-06T06:19:55.362Z,14.23
2019-03-06T06:25:00.732Z,14.40
2019-03-06T06:30:08.612Z,14.67
2019-03-06T06:35:17.080Z,12.82
2019-03-06T06:40:22.898Z,13.23
2019-03-06T06:45:28.457Z,14.63
2019-03-06T06:50:35.290Z,13.83
2019-03-06T06:55:52.977Z,14.30
2019-03-06T07:01:45.410Z,11.93
2019-03-06T07:07:11.395Z,11.53
2019-03-06T07:12:21.770Z,10.78
2019-03-06T07:17:32.819Z,11.30
2019-03-06T07:22:52.717Z,10.53
2019-03-06T07:28:14.263Z,10.28
2019-03-06T07:33:37.222Z,10.58
2019-03-06T07:38:43.009Z,11.30
2019-03-06T07:44:06.358Z,11.65
2019-03-06T07:49:44.647Z,11.97
2019-03-06T07:55:53.885Z,12.53
2019-03-06T08:00:59.267Z,12.60
2019-03-06T08:06:04.572Z,11.60
2019-03-06T08:11:15.521Z,11.95
2019-03-06T08:16:31.518Z,10.98
2019-03-06T08:22:07.536Z,8.93
2019-03-06T08:27:12.791Z,7.58
2019-03-06T08:32:29.766Z,7.25
2019-03-06T08:37:34.977Z,6.95
2019-03-06T08:42:40.322Z,5.95
2019-03-06T08:47:57.054Z,5.73
2019-03-06T08:53:19.800Z,5.28
2019-03-06T08:58:42.713Z,5.72
2019-03-06T09:03:57.905Z,6.10
2019-03-06T09:09:24.889Z,5.95
2019-03-06T09:14:53.078Z,6.03
2019-03-06T09:20:16.330Z,6.47
2019-03-06T09:25:38.545Z,6.15
2019-03-06T09:31:05.928Z,5.75
2019-03-06T09:36:27.350Z,5.90
2019-03-06T09:41:51.663Z,5.33
2019-03-06T09:47:12.507Z,4.83
2019-03-06T09:52:36.708Z,3.90
2019-03-06T09:57:51.939Z,3.33
2019-03-06T10:03:14.643Z,2.80
2019-03-06T10:08:37.541Z,2.63
2019-03-06T10:13:52.214Z,2.50
2019-03-06T10:19:13.190Z,2.60
2019-03-06T10:24:18.369Z,2.67
2019-03-06T10:29:23.645Z,1.95
2019-03-06T10:34:28.946Z,2.30
2019-03-06T10:39:34.701Z,4.62
2019-03-06T10:44:40.011Z,1.95
2019-03-06T10:49:45.415Z,1.70
2019-03-06T10:54:50.884Z,1.65
2019-03-06T10:59:56.917Z,1.57
2019-03-06T11:05:13.943Z,1.60
2019-03-06T11:10:23.757Z,2.83
2019-03-06T11:15:28.495Z,1.67
2019-03-06T11:20:35.937Z,1.70
2019-03-06T11:25:41.927Z,1.85
2019-03-06T11:30:50.563Z,3.00
2019-03-06T11:35:56.815Z,2.12
2019-03-06T11:41:02.748Z,1.62
2019-03-06T11:46:10.288Z,1.77
2019-03-06T11:51:15.953Z,1.70
2019-03-06T11:56:21.227Z,1.67
2019-03-06T12:01:29.437Z,1.70
2019-03-06T12:06:35.177Z,2.00
2019-03-06T12:11:40.484Z,2.00
2019-03-06T12:16:45.714Z,1.90
2019-03-06T12:21:51.270Z,2.10
2019-03-06T12:26:58.454Z,2.40
2019-03-06T12:32:05.261Z,1.98
2019-03-06T12:37:10.933Z,2.07
2019-03-06T12:42:16.956Z,2.37
2019-03-06T12:47:22.338Z,2.20
2019-03-06T12:52:27.980Z,2.08
2019-03-06T12:57:34.015Z,2.22
2019-03-06T13:02:39.280Z,2.10
2019-03-06T13:07:44.796Z,2.20
2019-03-06T13:12:51.007Z,2.10
2019-03-06T13:17:57.141Z,1.82
2019-03-06T13:23:04.202Z,2.00
2019-03-06T13:28:09.765Z,2.00
2019-03-06T13:33:41.109Z,2.27
2019-03-06T13:38:54.671Z,2.05
2019-03-06T13:43:55.123Z,1.70
2019-03-06T13:49:01.058Z,2.00
2019-03-06T13:54:06.290Z,1.77
2019-03-06T13:59:11.649Z,2.02
2019-03-06T14:04:17.427Z,2.20
2019-03-06T14:09:22.953Z,2.00
2019-03-06T14:14:28.672Z,2.25
2019-03-06T14:19:34.199Z,1.90
2019-03-06T14:24:40.253Z,2.02
2019-03-06T14:29:46.637Z,2.22
2019-03-06T14:34:52.551Z,2.17
2019-03-06T14:39:59.474Z,2.00
2019-03-06T14:45:05.734Z,2.30
2019-03-06T14:50:12.103Z,3.30
2019-03-06T14:55:17.381Z,2.00
2019-03-06T15:00:22.902Z,2.17
2019-03-06T15:05:28.558Z,2.40
2019-03-06T15:10:42.554Z,2.20
2019-03-06T15:15:41.343Z,2.72
2019-03-06T15:20:47.012Z,2.60
2019-03-06T15:25:52.609Z,2.20
2019-03-06T15:30:59.858Z,2.80
2019-03-06T15:36:06.428Z,2.17
2019-03-06T15:41:12.358Z,2.83
2019-03-06T15:46:17.601Z,2.70
2019-03-06T15:51:22.850Z,2.40
2019-03-06T15:56:28.625Z,2.27
2019-03-06T16:01:34.228Z,2.00
2019-03-06T16:06:39.448Z,2.17
2019-03-06T16:11:46.579Z,1.70
2019-03-06T16:16:52.836Z,1.90
2019-03-06T16:21:58.394Z,2.10
2019-03-06T16:27:12.162Z,1.80
2019-03-06T16:32:18.381Z,1.85
2019-03-06T16:37:24.031Z,2.70
2019-03-06T16:42:29.470Z,1.77
2019-03-06T16:47:35.326Z,2.57
2019-03-06T16:52:40.758Z,2.83
2019-03-06T16:57:47.782Z,1.90
2019-03-06T17:02:53.115Z,2.22
2019-03-06T17:07:59.029Z,2.12
2019-03-06T17:13:04.810Z,2.10
2019-03-06T17:18:10.982Z,1.98
2019-03-06T17:23:16.274Z,4.40
2019-03-06T17:28:21.621Z,4.35
2019-03-06T17:33:27.429Z,8.70
2019-03-06T17:38:32.796Z,3.65
2019-03-06T17:43:38.118Z,3.80
2019-03-06T17:48:44.312Z,5.53
2019-03-06T17:53:49.899Z,2.50
2019-03-06T17:58:55.501Z,2.87
2019-03-06T18:04:20.652Z,2.67
2019-03-06T18:09:26.156Z,2.90
2019-03-06T18:14:31.647Z,2.57
2019-03-06T18:19:37.818Z,2.60
2019-03-06T18:24:43.039Z,2.87
2019-03-06T18:29:48.243Z,2.62
2019-03-06T18:34:53.843Z,2.80
2019-03-06T18:39:59.199Z,2.80
2019-03-06T18:45:07.275Z,2.80
2019-03-06T18:50:15.631Z,2.67
2019-03-06T18:55:20.944Z,2.70
2019-03-06T19:00:26.348Z,2.63
2019-03-06T19:05:31.790Z,2.60
2019-03-06T19:10:38.181Z,2.60
2019-03-06T19:15:43.636Z,2.70
2019-03-06T19:20:49.479Z,2.40
2019-03-06T19:25:55.490Z,3.40
2019-03-06T19:31:00.940Z,6.15
2019-03-06T19:36:06.510Z,6.05
2019-03-06T19:41:12.972Z,4.80
2019-03-06T19:46:19.250Z,2.85
2019-03-06T19:51:25.083Z,2.83
2019-03-06T19:56:30.695Z,2.80
2019-03-06T20:01:36.521Z,2.80
2019-03-06T20:06:42.366Z,2.83
2019-03-06T20:11:47.995Z,2.85
2019-03-06T20:16:54.111Z,11.20
2019-03-06T20:22:02.039Z,5.17
2019-03-06T20:27:07.644Z,4.77
2019-03-06T20:32:13.033Z,4.22
2019-03-06T20:37:18.310Z,5.10
2019-03-06T20:42:23.965Z,4.17
2019-03-06T20:47:30.053Z,3.50
2019-03-06T20:52:35.337Z,3.40
2019-03-06T20:57:40.792Z,3.10
2019-03-06T21:02:46.537Z,2.92
2019-03-06T21:07:54.154Z,3.33
2019-03-06T21:12:59.440Z,2.90
2019-03-06T21:18:04.736Z,3.45
2019-03-06T21:23:10.432Z,3.65
2019-03-06T21:28:15.879Z,3.95
2019-03-06T21:33:22.066Z,3.50
2019-03-06T21:38:28.073Z,3.50
2019-03-06T21:43:33.390Z,3.92
2019-03-06T21:48:39.658Z,3.40
2019-03-06T21:53:45.235Z,3.52
2019-03-06T21:58:50.867Z,3.42
2019-03-06T22:03:57.933Z,3.58
2019-03-06T22:09:05.373Z,3.27
2019-03-06T22:14:13.209Z,2.87
2019-03-06T22:19:18.922Z,2.10
2019-03-06T22:24:24.330Z,2.58
2019-03-06T22:29:29.546Z,2.05
2019-03-06T22:34:35.043Z,2.22
2019-03-06T22:39:41.887Z,2.40
2019-03-06T22:44:47.199Z,2.20
2019-03-06T22:49:53.388Z,2.27
2019-03-06T22:54:58.688Z,2.57
2019-03-06T23:00:05.843Z,2.70
2019-03-06T23:05:12.315Z,2.20
2019-03-06T23:10:17.724Z,2.40
2019-03-06T23:15:23.656Z,2.30
2019-03-06T23:20:28.801Z,2.27
2019-03-06T23:25:34.061Z,2.40
2019-03-06T23:30:39.930Z,2.75
2019-03-06T23:35:51.251Z,2.85
2019-03-06T23:40:57.580Z,3.02
2019-03-06T23:46:02.937Z,2.52
2019-03-06T23:51:22.020Z,2.55
2019-03-06T23:56:28.183Z,2.87
